Time,TemperatureF,DewpointF,PressureIn,WindDirection,WindDirectionDegrees,WindSpeedMPH,WindSpeedGustMPH,Humidity,HourlyPrecipIn,Conditions,Clouds,dailyrainin,SoftwareType,DateUTC
2013-09-10 00:01:00,58.4,50.5,29.95,WSW,255,0.0,4.0,75,0.00,,,0.00,WeatherCatV1.11B39,2013-09-10 04:01:00,
2013-09-10 00:06:00,58.4,50.5,29.95,NW,312,5.0,6.0,75,0.00,,,0.00,WeatherCatV1.11B39,2013-09-10 04:06:00,
2013-09-10 00:11:00,58.2,50.0,29.94,WSW,244,1.0,5.0,74,0.00,,,0.00,WeatherCatV1.11B39,2013-09-10 04:11:00,
2013-09-10 00:16:00,58.3,50.0,29.95,SW,230,2.0,5.0,74,0.00,,,0.00,WeatherCatV1.11B39,2013-09-10 04:16:00,
2013-09-10 00:21:00,58.1,49.9,29.94,WNW,292,0.0,4.0,74,0.00,,,0.00,WeatherCatV1.11B39,2013-09-10 04:21:00,
2013-09-10 00:26:00,58.1,50.2,29.95,WSW,257,2.0,5.0,75,0.00,,,0.00,WeatherCatV1.11B39,2013-09-10 04:26:00,
2013-09-10 00:31:00,57.9,50.0,29.94,SW,230,0.0,0.0,75,0.00,,,0.00,WeatherCatV1.11B39,2013-09-10 04:31:00,
2013-09-10 00:36:00,57.9,50.4,29.94,WSW,245,0.0,0.0,76,0.00,,,0.00,WeatherCatV1.11B39,2013-09-10 04:36:00,
2013-09-10 00:41:00,57.8,50.3,29.94,SW,236,0.0,3.0,76,0.00,,,0.00,WeatherCatV1.11B39,2013-09-10 04:41:00,
2013-09-10 00:46:00,57.8,50.3,29.94,WNW,283,0.0,0.0,76,0.00,,,0.00,WeatherCatV1.11B39,2013-09-10 04:46:00,
2013-09-10 00:51:00,57.6,50.1,29.94,West,262,0.0,1.0,76,0.00,,,0.00,WeatherCatV1.11B39,2013-09-10 04:51:00,
2013-09-10 00:56:00,57.6,50.4,29.93,West,271,0.0,0.0,77,0.00,,,0.00,WeatherCatV1.11B39,2013-09-10 04:56:00,
2013-09-10 01:01:00,57.6,50.8,29.93,WSW,257,4.0,4.0,78,0.00,,,0.00,WeatherCatV1.11B39,2013-09-10 05:01:00,
2013-09-10 01:06:00,57.8,51.0,29.93,WSW,246,3.0,5.0,78,0.00,,,0.00,WeatherCatV1.11B39,2013-09-10 05:06:00,
2013-09-10 01:11:00,57.8,51.0,29.94,West,275,2.0,6.0,78,0.00,,,0.00,WeatherCatV1.11B39,2013-09-10 05:11:00,
2013-09-10 01:16:00,57.8,51.0,29.94,West,264,0.0,4.0,78,0.00,,,0.00,WeatherCatV1.11B39,2013-09-10 05:16:00,
2013-09-10 01:21:00,57.8,51.0,29.93,West,263,0.0,0.0,78,0.00,,,0.00,WeatherCatV1.11B39,2013-09-10 05:21:00,
2013-09-10 01:26:00,57.8,51.0,29.94,SW,228,0.0,0.0,78,0.00,,,0.00,WeatherCatV1.11B39,2013-09-10 05:26:00,
2013-09-10 01:31:00,57.8,51.0,29.94,WSW,245,0.0,4.0,78,0.00,,,0.00,WeatherCatV1.11B39,2013-09-10 05:31:00,
2013-09-10 01:36:00,57.8,51.0,29.93,South,189,0.0,0.0,78,0.00,,,0.00,WeatherCatV1.11B39,2013-09-10 05:36:00,
2013-09-10 01:41:00,57.6,50.8,29.94,South,180,0.0,0.0,78,0.00,,,0.00,WeatherCatV1.11B39,2013-09-10 05:41:00,
2013-09-10 01:46:00,57.6,50.8,29.94,SSE,164,0.0,0.0,78,0.00,,,0.00,WeatherCatV1.11B39,2013-09-10 05:46:00,
2013-09-10 01:51:00,57.5,50.7,29.95,SSE,150,0.0,0.0,78,0.00,,,0.00,WeatherCatV1.11B39,2013-09-10 05:51:00,
2013-09-10 01:56:00,57.5,51.0,29.94,SSE,150,0.0,0.0,79,0.00,,,0.00,WeatherCatV1.11B39,2013-09-10 05:56:00,
2013-09-10 02:01:00,57.3,50.8,29.94,SSE,150,0.0,0.0,79,0.00,,,0.00,WeatherCatV1.11B39,2013-09-10 06:01:00,
2013-09-10 02:06:00,57.2,50.7,29.94,SSE,149,0.0,0.0,79,0.00,,,0.00,WeatherCatV1.11B39,2013-09-10 06:06:00,
2013-09-10 02:11:00,57.2,50.7,29.94,SSE,149,0.0,0.0,79,0.00,,,0.00,WeatherCatV1.11B39,2013-09-10 06:11:00,
2013-09-10 02:16:00,57.0,50.9,29.94,SSE,149,0.0,0.0,80,0.00,,,0.00,WeatherCatV1.11B39,2013-09-10 06:16:00,
2013-09-10 02:21:00,57.0,50.9,29.95,SSE,149,0.0,0.0,80,0.00,,,0.00,WeatherCatV1.11B39,2013-09-10 06:21:00,
2013-09-10 02:26:00,57.0,51.2,29.95,SSE,149,0.0,0.0,81,0.00,,,0.00,WeatherCatV1.11B39,2013-09-10 06:26:00,
2013-09-10 02:31:00,57.0,50.9,29.95,SSE,149,0.0,0.0,80,0.00,,,0.00,WeatherCatV1.11B39,2013-09-10 06:31:00,
2013-09-10 02:36:00,56.9,50.8,29.94,SSE,149,0.0,0.0,80,0.00,,,0.00,WeatherCatV1.11B39,2013-09-10 06:36:00,
2013-09-10 02:41:00,56.9,51.1,29.95,SSE,149,0.0,0.0,81,0.00,,,0.00,WeatherCatV1.11B39,2013-09-10 06:41:00,
2013-09-10 02:46:00,56.9,51.1,29.95,SSE,149,0.0,0.0,81,0.00,,,0.00,WeatherCatV1.11B39,2013-09-10 06:46:00,
2013-09-10 02:51:00,56.9,51.5,29.94,SSE,150,0.0,0.0,82,0.00,,,0.00,WeatherCatV1.11B39,2013-09-10 06:51:00,
2013-09-10 02:56:00,56.9,51.5,29.94,SSE,150,0.0,0.0,82,0.00,,,0.00,WeatherCatV1.11B39,2013-09-10 06:56:00,
2013-09-10 03:01:00,56.9,51.5,29.94,SSE,150,0.0,0.0,82,0.00,,,0.00,WeatherCatV1.11B39,2013-09-10 07:01:00,
2013-09-10 03:06:00,56.9,51.5,29.94,SSE,150,0.0,0.0,82,0.00,,,0.00,WeatherCatV1.11B39,2013-09-10 07:06:00,
2013-09-10 03:11:00,57.0,51.6,29.94,SSE,150,0.0,0.0,82,0.00,,,0.00,WeatherCatV1.11B39,2013-09-10 07:11:00,
2013-09-10 03:16:00,57.0,51.6,29.94,SSE,149,0.0,0.0,82,0.00,,,0.00,WeatherCatV1.11B39,2013-09-10 07:16:00,
2013-09-10 03:21:00,57.0,51.6,29.94,SSE,149,0.0,0.0,82,0.00,,,0.00,WeatherCatV1.11B39,2013-09-10 07:21:00,
2013-09-10 03:26:00,57.0,51.9,29.94,SSE,149,0.0,0.0,83,0.00,,,0.00,WeatherCatV1.11B39,2013-09-10 07:26:00,
2013-09-10 03:31:00,57.2,52.1,29.93,SSE,149,0.0,0.0,83,0.00,,,0.00,WeatherCatV1.11B39,2013-09-10 07:31:00,
2013-09-10 03:36:00,57.2,52.1,29.93,SSE,149,0.0,0.0,83,0.00,,,0.00,WeatherCatV1.11B39,2013-09-10 07:36:00,
2013-09-10 03:41:00,57.2,52.1,29.93,SSE,148,0.0,0.0,83,0.00,,,0.00,WeatherCatV1.11B39,2013-09-10 07:41:00,
2013-09-10 03:46:00,57.2,52.1,29.93,SSE,147,0.0,0.0,83,0.00,,,0.00,WeatherCatV1.11B39,2013-09-10 07:46:00,
2013-09-10 03:51:00,57.3,52.5,29.93,SSE,147,0.0,0.0,84,0.00,,,0.00,WeatherCatV1.11B39,2013-09-10 07:51:00,
2013-09-10 03:56:00,57.3,52.5,29.93,SSE,147,0.0,0.0,84,0.00,,,0.00,WeatherCatV1.11B39,2013-09-10 07:56:00,
2013-09-10 04:01:00,57.3,52.5,29.93,SSE,147,0.0,0.0,84,0.00,,,0.00,WeatherCatV1.11B39,2013-09-10 08:01:00,
2013-09-10 04:06:00,57.3,52.5,29.93,SSE,147,0.0,0.0,84,0.00,,,0.00,WeatherCatV1.11B39,2013-09-10 08:06:00,
2013-09-10 04:11:00,57.5,52.7,29.93,SSE,147,0.0,0.0,84,0.00,,,0.00,WeatherCatV1.11B39,2013-09-10 08:11:00,
2013-09-10 04:16:00,57.6,52.8,29.93,SSE,147,0.0,0.0,84,0.00,,,0.00,WeatherCatV1.11B39,2013-09-10 08:16:00,
2013-09-10 04:21:00,57.8,53.0,29.93,SSE,147,0.0,0.0,84,0.00,,,0.00,WeatherCatV1.11B39,2013-09-10 08:21:00,
2013-09-10 04:26:00,58.2,53.4,29.92,SSE,147,0.0,0.0,84,0.00,,,0.00,WeatherCatV1.11B39,2013-09-10 08:26:00,
2013-09-10 04:31:00,58.5,53.7,29.93,South,172,0.0,0.0,84,0.00,,,0.00,WeatherCatV1.11B39,2013-09-10 08:31:00,
2013-09-10 04:36:00,58.9,54.1,29.93,South,172,0.0,0.0,84,0.00,,,0.00,WeatherCatV1.11B39,2013-09-10 08:36:00,
2013-09-10 04:41:00,59.0,54.2,29.93,South,172,0.0,0.0,84,0.00,,,0.00,WeatherCatV1.11B39,2013-09-10 08:41:00,
2013-09-10 04:46:00,59.1,54.3,29.92,South,172,0.0,0.0,84,0.00,,,0.00,WeatherCatV1.11B39,2013-09-10 08:46:00,
2013-09-10 04:51:00,59.3,54.5,29.92,South,182,0.0,0.0,84,0.00,,,0.00,WeatherCatV1.11B39,2013-09-10 08:51:00,
2013-09-10 04:56:00,59.4,54.6,29.92,South,182,0.0,0.0,84,0.00,,,0.00,WeatherCatV1.11B39,2013-09-10 08:56:00,
2013-09-10 05:01:00,59.5,54.7,29.92,South,181,0.0,0.0,84,0.00,,,0.00,WeatherCatV1.11B39,2013-09-10 09:01:00,
2013-09-10 05:06:00,59.6,54.8,29.93,SSW,203,0.0,2.0,84,0.00,,,0.00,WeatherCatV1.11B39,2013-09-10 09:06:00,
2013-09-10 05:11:00,59.8,55.0,29.92,SSW,201,0.0,0.0,84,0.00,,,0.00,WeatherCatV1.11B39,2013-09-10 09:11:00,
2013-09-10 05:16:00,60.0,55.1,29.93,SSW,201,0.0,0.0,84,0.00,,,0.00,WeatherCatV1.11B39,2013-09-10 09:16:00,
2013-09-10 05:21:00,60.2,55.3,29.92,SSW,201,0.0,0.0,84,0.00,,,0.00,WeatherCatV1.11B39,2013-09-10 09:21:00,
2013-09-10 05:26:00,60.4,55.5,29.92,SSW,201,0.0,0.0,84,0.00,,,0.00,WeatherCatV1.11B39,2013-09-10 09:26:00,
2013-09-10 05:31:00,60.4,55.2,29.92,SSW,201,0.0,0.0,83,0.00,,,0.00,WeatherCatV1.11B39,2013-09-10 09:31:00,
2013-09-10 05:36:00,60.4,55.2,29.92,SSW,201,0.0,0.0,83,0.00,,,0.00,WeatherCatV1.11B39,2013-09-10 09:36:00,
2013-09-10 05:41:00,60.4,55.2,29.92,SSW,201,0.0,0.0,83,0.00,,,0.00,WeatherCatV1.11B39,2013-09-10 09:41:00,
2013-09-10 05:46:00,60.4,55.2,29.92,SSW,201,0.0,0.0,83,0.00,,,0.00,WeatherCatV1.11B39,2013-09-10 09:46:00,
2013-09-10 05:51:00,60.2,55.0,29.92,SSW,201,0.0,0.0,83,0.00,,,0.00,WeatherCatV1.11B39,2013-09-10 09:51:00,
2013-09-10 05:56:00,59.9,54.7,29.92,SSW,201,0.0,0.0,83,0.00,,,0.00,WeatherCatV1.11B39,2013-09-10 09:56:00,
2013-09-10 06:01:00,59.9,55.0,29.93,SSW,201,0.0,0.0,84,0.00,,,0.00,WeatherCatV1.11B39,2013-09-10 10:01:00,
2013-09-10 06:06:00,59.9,55.0,29.93,SSW,201,0.0,0.0,84,0.00,,,0.00,WeatherCatV1.11B39,2013-09-10 10:06:00,
2013-09-10 06:11:00,59.9,55.0,29.93,SSW,204,0.0,0.0,84,0.00,,,0.00,WeatherCatV1.11B39,2013-09-10 10:11:00,
2013-09-10 06:16:00,59.9,55.0,29.93,SSW,204,0.0,0.0,84,0.00,,,0.00,WeatherCatV1.11B39,2013-09-10 10:16:00,
2013-09-10 06:21:00,60.0,55.5,29.93,SSW,204,0.0,0.0,85,0.00,,,0.00,WeatherCatV1.11B39,2013-09-10 10:21:00,
2013-09-10 06:26:00,60.2,55.7,29.93,SSW,204,0.0,0.0,85,0.00,,,0.00,WeatherCatV1.11B39,2013-09-10 10:26:00,
2013-09-10 06:31:00,60.4,55.9,29.93,SSW,204,0.0,0.0,85,0.00,,,0.00,WeatherCatV1.11B39,2013-09-10 10:31:00,
2013-09-10 06:36:00,60.5,56.0,29.92,SSW,204,0.0,0.0,85,0.00,,,0.00,WeatherCatV1.11B39,2013-09-10 10:36:00,
2013-09-10 06:41:00,60.6,56.1,29.92,SSW,204,0.0,0.0,85,0.00,,,0.00,WeatherCatV1.11B39,2013-09-10 10:41:00,
2013-09-10 06:46:00,60.7,56.2,29.93,SSW,204,0.0,0.0,85,0.00,,,0.00,WeatherCatV1.11B39,2013-09-10 10:46:00,
2013-09-10 06:51:00,60.7,56.2,29.93,SSW,204,0.0,0.0,85,0.00,,,0.00,WeatherCatV1.11B39,2013-09-10 10:51:00,
2013-09-10 06:56:00,60.9,56.4,29.93,SSW,204,0.0,0.0,85,0.00,,,0.00,WeatherCatV1.11B39,2013-09-10 10:56:00,
2013-09-10 07:01:00,60.9,56.4,29.94,SSW,204,0.0,0.0,85,0.00,,,0.00,WeatherCatV1.11B39,2013-09-10 11:01:00,
2013-09-10 07:06:00,60.8,56.3,29.94,SSW,204,0.0,0.0,85,0.00,,,0.00,WeatherCatV1.11B39,2013-09-10 11:06:00,
2013-09-10 07:11:00,60.9,56.7,29.93,SSW,206,0.0,0.0,86,0.00,,,0.00,WeatherCatV1.11B39,2013-09-10 11:11:00,
2013-09-10 07:16:00,61.2,57.0,29.93,SW,236,0.0,0.0,86,0.00,,,0.00,WeatherCatV1.11B39,2013-09-10 11:16:00,
2013-09-10 07:21:00,61.3,57.1,29.93,South,182,0.0,0.0,86,0.00,,,0.00,WeatherCatV1.11B39,2013-09-10 11:21:00,
2013-09-10 07:26:00,61.3,57.1,29.93,South,182,0.0,0.0,86,0.00,,,0.00,WeatherCatV1.11B39,2013-09-10 11:26:00,
2013-09-10 07:31:00,61.5,57.3,29.92,South,183,0.0,0.0,86,0.00,,,0.00,WeatherCatV1.11B39,2013-09-10 11:31:00,
2013-09-10 07:36:00,61.6,57.4,29.92,South,180,0.0,0.0,86,0.00,,,0.00,WeatherCatV1.11B39,2013-09-10 11:36:00,
2013-09-10 07:41:00,61.8,57.6,29.93,SW,222,1.0,5.0,86,0.00,,,0.00,WeatherCatV1.11B39,2013-09-10 11:41:00,
2013-09-10 07:46:00,61.9,57.7,29.92,SW,218,0.0,0.0,86,0.00,,,0.00,WeatherCatV1.11B39,2013-09-10 11:46:00,
2013-09-10 07:51:00,62.1,57.9,29.92,SSW,195,0.0,0.0,86,0.00,,,0.00,WeatherCatV1.11B39,2013-09-10 11:51:00,
2013-09-10 07:56:00,62.3,58.1,29.92,SSW,205,0.0,0.0,86,0.00,,,0.00,WeatherCatV1.11B39,2013-09-10 11:56:00,
2013-09-10 08:01:00,62.4,58.2,29.91,SSW,208,0.0,0.0,86,0.00,,,0.00,WeatherCatV1.11B39,2013-09-10 12:01:00,
2013-09-10 08:06:00,62.4,58.2,29.92,SW,234,0.0,0.0,86,0.00,,,0.00,WeatherCatV1.11B39,2013-09-10 12:06:00,
2013-09-10 08:11:00,62.6,58.3,29.92,SSW,212,0.0,0.0,86,0.00,,,0.00,WeatherCatV1.11B39,2013-09-10 12:11:00,
2013-09-10 08:16:00,62.6,58.3,29.92,SSW,204,0.0,0.0,86,0.00,,,0.00,WeatherCatV1.11B39,2013-09-10 12:16:00,
2013-09-10 08:21:00,62.7,58.8,29.92,WSW,257,0.0,5.0,87,0.00,,,0.00,WeatherCatV1.11B39,2013-09-10 12:21:00,
2013-09-10 08:26:00,63.0,59.4,29.92,WSW,253,3.0,5.0,88,0.00,,,0.00,WeatherCatV1.11B39,2013-09-10 12:26:00,
2013-09-10 08:31:00,63.3,59.7,29.92,WSW,244,4.0,7.0,88,0.00,,,0.00,WeatherCatV1.11B39,2013-09-10 12:31:00,
2013-09-10 08:36:00,63.5,59.9,29.92,WSW,247,4.0,7.0,88,0.00,,,0.00,WeatherCatV1.11B39,2013-09-10 12:36:00,
2013-09-10 08:41:00,63.7,60.4,29.92,WSW,241,9.0,10.0,89,0.00,,,0.00,WeatherCatV1.11B39,2013-09-10 12:41:00,
2013-09-10 08:46:00,63.9,60.6,29.92,WSW,249,5.0,9.0,89,0.00,,,0.00,WeatherCatV1.11B39,2013-09-10 12:46:00,
2013-09-10 08:51:00,64.0,60.7,29.92,WSW,255,4.0,8.0,89,0.00,,,0.00,WeatherCatV1.11B39,2013-09-10 12:51:00,
2013-09-10 08:56:00,64.2,60.9,29.92,West,272,5.0,10.0,89,0.00,,,0.00,WeatherCatV1.11B39,2013-09-10 12:56:00,
2013-09-10 09:01:00,64.3,61.0,29.92,West,267,6.0,10.0,89,0.00,,,0.00,WeatherCatV1.11B39,2013-09-10 13:01:00,
2013-09-10 09:06:00,64.5,61.2,29.92,West,263,4.0,6.0,89,0.00,,,0.00,WeatherCatV1.11B39,2013-09-10 13:06:00,
2013-09-10 09:11:00,64.6,61.3,29.92,West,269,4.0,7.0,89,0.00,,,0.00,WeatherCatV1.11B39,2013-09-10 13:11:00,
2013-09-10 09:16:00,64.8,61.2,29.91,West,266,6.0,9.0,88,0.00,,,0.00,WeatherCatV1.11B39,2013-09-10 13:16:00,
2013-09-10 09:21:00,65.0,61.4,29.91,WSW,252,0.0,9.0,88,0.00,,,0.00,WeatherCatV1.11B39,2013-09-10 13:21:00,
2013-09-10 09:26:00,65.3,61.6,29.91,WSW,252,0.0,7.0,88,0.00,,,0.00,WeatherCatV1.11B39,2013-09-10 13:26:00,
2013-09-10 09:31:00,65.3,61.6,29.91,NW,305,4.0,8.0,88,0.00,,,0.00,WeatherCatV1.11B39,2013-09-10 13:31:00,
2013-09-10 09:36:00,65.5,61.8,29.91,WSW,252,5.0,7.0,88,0.00,,,0.00,WeatherCatV1.11B39,2013-09-10 13:36:00,
2013-09-10 09:41:00,65.6,61.9,29.91,WSW,252,4.0,6.0,88,0.00,,,0.00,WeatherCatV1.11B39,2013-09-10 13:41:00,
2013-09-10 09:46:00,65.8,61.8,29.91,West,263,7.0,9.0,87,0.00,,,0.00,WeatherCatV1.11B39,2013-09-10 13:46:00,
2013-09-10 09:51:00,65.9,61.9,29.91,West,269,5.0,8.0,87,0.00,,,0.00,WeatherCatV1.11B39,2013-09-10 13:51:00,
2013-09-10 09:56:00,66.1,62.4,29.91,West,259,5.0,12.0,88,0.00,,,0.00,WeatherCatV1.11B39,2013-09-10 13:56:00,
2013-09-10 10:01:00,66.1,62.1,29.91,WSW,252,4.0,8.0,87,0.00,,,0.00,WeatherCatV1.11B39,2013-09-10 14:01:00,
2013-09-10 10:06:00,66.3,62.3,29.91,West,260,6.0,8.0,87,0.00,,,0.00,WeatherCatV1.11B39,2013-09-10 14:06:00,
2013-09-10 10:11:00,66.2,62.5,29.91,WSW,256,4.0,10.0,88,0.00,,,0.00,WeatherCatV1.11B39,2013-09-10 14:11:00,
2013-09-10 10:16:00,66.4,62.4,29.91,West,261,5.0,7.0,87,0.00,,,0.00,WeatherCatV1.11B39,2013-09-10 14:16:00,
2013-09-10 10:21:00,66.6,62.6,29.91,West,263,7.0,7.0,87,0.00,,,0.00,WeatherCatV1.11B39,2013-09-10 14:21:00,
2013-09-10 10:26:00,66.7,63.0,29.91,WSW,256,6.0,8.0,88,0.00,,,0.00,WeatherCatV1.11B39,2013-09-10 14:26:00,
2013-09-10 10:31:00,66.9,62.9,29.91,West,272,5.0,7.0,87,0.00,,,0.00,WeatherCatV1.11B39,2013-09-10 14:31:00,
2013-09-10 10:36:00,67.0,63.0,29.91,West,261,6.0,9.0,87,0.00,,,0.00,WeatherCatV1.11B39,2013-09-10 14:36:00,
2013-09-10 10:41:00,67.2,63.2,29.91,WSW,255,4.0,8.0,87,0.00,,,0.00,WeatherCatV1.11B39,2013-09-10 14:41:00,
2013-09-10 10:46:00,67.3,63.3,29.91,WSW,254,0.0,5.0,87,0.00,,,0.00,WeatherCatV1.11B39,2013-09-10 14:46:00,
2013-09-10 10:51:00,67.3,63.0,29.91,West,261,8.0,11.0,86,0.00,,,0.00,WeatherCatV1.11B39,2013-09-10 14:51:00,
2013-09-10 10:56:00,67.3,63.3,29.91,WSW,248,6.0,6.0,87,0.00,,,0.00,WeatherCatV1.11B39,2013-09-10 14:56:00,
2013-09-10 11:01:00,67.3,63.3,29.91,West,260,4.0,5.0,87,0.00,,,0.00,WeatherCatV1.11B39,2013-09-10 15:01:00,
2013-09-10 11:06:00,67.3,63.6,29.92,WSW,256,3.0,7.0,88,0.00,,,0.00,WeatherCatV1.11B39,2013-09-10 15:06:00,
2013-09-10 11:11:00,67.2,63.5,29.92,West,271,6.0,8.0,88,0.00,,,0.00,WeatherCatV1.11B39,2013-09-10 15:11:00,
2013-09-10 11:16:00,67.3,63.6,29.92,WSW,257,4.0,7.0,88,0.00,,,0.00,WeatherCatV1.11B39,2013-09-10 15:16:00,
2013-09-10 11:21:00,67.3,63.6,29.90,WSW,237,2.0,10.0,88,0.00,,,0.00,WeatherCatV1.11B39,2013-09-10 15:21:00,
2013-09-10 11:26:00,67.0,63.6,29.89,WSW,239,4.0,6.0,89,0.00,,,0.01,WeatherCatV1.11B39,2013-09-10 15:26:00,
2013-09-10 11:31:00,66.9,63.9,29.88,WSW,252,0.0,5.0,90,0.00,,,0.01,WeatherCatV1.11B39,2013-09-10 15:31:00,
2013-09-10 11:36:00,66.7,63.7,29.86,South,191,0.0,0.0,90,0.05,,,0.02,WeatherCatV1.11B39,2013-09-10 15:36:00,
2013-09-10 11:41:00,66.6,63.9,29.86,WSW,241,7.0,7.0,91,0.05,,,0.03,WeatherCatV1.11B39,2013-09-10 15:41:00,
2013-09-10 11:46:00,66.4,63.7,29.84,West,259,6.0,7.0,91,0.02,,,0.04,WeatherCatV1.11B39,2013-09-10 15:46:00,
2013-09-10 11:51:00,66.4,64.0,29.85,WSW,256,2.0,8.0,92,0.09,,,0.05,WeatherCatV1.11B39,2013-09-10 15:51:00,
2013-09-10 11:56:00,66.4,64.0,29.85,WSW,252,3.0,10.0,92,0.00,,,0.05,WeatherCatV1.11B39,2013-09-10 15:56:00,
2013-09-10 12:01:00,66.6,64.8,29.85,West,266,6.0,7.0,94,0.00,,,0.05,WeatherCatV1.11B39,2013-09-10 16:01:00,
2013-09-10 12:06:00,66.8,65.0,29.85,WSW,253,7.0,10.0,94,0.00,,,0.05,WeatherCatV1.11B39,2013-09-10 16:06:00,
2013-09-10 12:11:00,66.9,64.8,29.85,WSW,251,1.0,12.0,93,0.00,,,0.05,WeatherCatV1.11B39,2013-09-10 16:11:00,
2013-09-10 12:16:00,66.9,65.1,29.85,West,262,6.0,13.0,94,0.00,,,0.05,WeatherCatV1.11B39,2013-09-10 16:16:00,
2013-09-10 12:21:00,67.1,65.3,29.85,WSW,255,5.0,8.0,94,0.00,,,0.05,WeatherCatV1.11B39,2013-09-10 16:21:00,
2013-09-10 12:26:00,67.2,65.4,29.85,WSW,245,3.0,5.0,94,0.00,,,0.05,WeatherCatV1.11B39,2013-09-10 16:26:00,
2013-09-10 12:31:00,67.3,65.5,29.85,West,260,5.0,14.0,94,0.00,,,0.06,WeatherCatV1.11B39,2013-09-10 16:31:00,
2013-09-10 12:36:00,67.4,65.6,29.85,West,278,4.0,10.0,94,0.00,,,0.06,WeatherCatV1.11B39,2013-09-10 16:36:00,
2013-09-10 12:41:00,67.6,65.8,29.85,West,261,4.0,5.0,94,0.00,,,0.06,WeatherCatV1.11B39,2013-09-10 16:41:00,
2013-09-10 12:46:00,67.8,66.0,29.85,WSW,252,5.0,8.0,94,0.00,,,0.06,WeatherCatV1.11B39,2013-09-10 16:46:00,
2013-09-10 12:51:00,67.9,65.8,29.85,WNW,289,6.0,8.0,93,0.00,,,0.06,WeatherCatV1.11B39,2013-09-10 16:51:00,
2013-09-10 12:56:00,68.1,66.3,29.86,West,261,3.0,6.0,94,0.00,,,0.06,WeatherCatV1.11B39,2013-09-10 16:56:00,
2013-09-10 13:01:00,68.1,66.3,29.87,WNW,298,5.0,6.0,94,0.00,,,0.06,WeatherCatV1.11B39,2013-09-10 17:01:00,
2013-09-10 13:06:00,68.2,66.4,29.86,WSW,255,4.0,4.0,94,0.00,,,0.06,WeatherCatV1.11B39,2013-09-10 17:06:00,
2013-09-10 13:11:00,68.3,66.5,29.86,WSW,253,4.0,5.0,94,0.00,,,0.06,WeatherCatV1.11B39,2013-09-10 17:11:00,
2013-09-10 13:16:00,68.4,66.6,29.86,West,262,5.0,7.0,94,0.00,,,0.06,WeatherCatV1.11B39,2013-09-10 17:16:00,
2013-09-10 13:21:00,68.5,66.7,29.85,WSW,252,5.0,5.0,94,0.00,,,0.06,WeatherCatV1.11B39,2013-09-10 17:21:00,
2013-09-10 13:26:00,68.8,67.0,29.85,WSW,251,2.0,4.0,94,0.00,,,0.06,WeatherCatV1.11B39,2013-09-10 17:26:00,
2013-09-10 13:31:00,68.9,67.1,29.84,West,269,2.0,6.0,94,0.00,,,0.06,WeatherCatV1.11B39,2013-09-10 17:31:00,
2013-09-10 13:36:00,68.9,67.1,29.85,South,188,0.0,4.0,94,0.00,,,0.06,WeatherCatV1.11B39,2013-09-10 17:36:00,
2013-09-10 13:41:00,69.1,67.3,29.84,WSW,252,1.0,7.0,94,0.00,,,0.06,WeatherCatV1.11B39,2013-09-10 17:41:00,
2013-09-10 13:46:00,69.2,67.4,29.84,WSW,248,6.0,6.0,94,0.00,,,0.06,WeatherCatV1.11B39,2013-09-10 17:46:00,
2013-09-10 13:51:00,69.6,67.5,29.84,West,259,0.0,0.0,93,0.00,,,0.06,WeatherCatV1.11B39,2013-09-10 17:51:00,
2013-09-10 13:56:00,69.7,67.6,29.84,WSW,244,0.0,0.0,93,0.00,,,0.06,WeatherCatV1.11B39,2013-09-10 17:56:00,
2013-09-10 14:01:00,69.9,67.8,29.84,WSW,244,0.0,0.0,93,0.00,,,0.06,WeatherCatV1.11B39,2013-09-10 18:01:00,
2013-09-10 14:06:00,70.2,67.8,29.85,SW,236,0.0,4.0,92,0.00,,,0.06,WeatherCatV1.11B39,2013-09-10 18:06:00,
2013-09-10 14:11:00,70.6,67.8,29.85,WSW,253,0.0,0.0,91,0.00,,,0.06,WeatherCatV1.11B39,2013-09-10 18:11:00,
2013-09-10 14:16:00,70.9,68.5,29.85,WSW,258,0.0,2.0,92,0.00,,,0.06,WeatherCatV1.11B39,2013-09-10 18:16:00,
2013-09-10 14:21:00,71.1,68.3,29.86,West,259,3.0,6.0,91,0.00,,,0.06,WeatherCatV1.11B39,2013-09-10 18:21:00,
2013-09-10 14:26:00,71.4,68.3,29.85,WNW,293,2.0,5.0,90,0.00,,,0.06,WeatherCatV1.11B39,2013-09-10 18:26:00,
2013-09-10 14:31:00,72.1,69.0,29.85,West,260,0.0,0.0,90,0.00,,,0.06,WeatherCatV1.11B39,2013-09-10 18:31:00,
2013-09-10 14:36:00,72.3,68.5,29.85,West,260,0.0,0.0,88,0.00,,,0.06,WeatherCatV1.11B39,2013-09-10 18:36:00,
2013-09-10 14:41:00,72.6,68.8,29.85,NW,322,0.0,0.0,88,0.00,,,0.06,WeatherCatV1.11B39,2013-09-10 18:41:00,
2013-09-10 14:46:00,73.3,69.5,29.86,WSW,251,5.0,9.0,88,0.00,,,0.06,WeatherCatV1.11B39,2013-09-10 18:46:00,
2013-09-10 14:51:00,73.4,68.3,29.85,West,259,8.0,11.0,84,0.00,,,0.06,WeatherCatV1.11B39,2013-09-10 18:51:00,
2013-09-10 14:56:00,73.8,68.3,29.85,WSW,258,7.0,7.0,83,0.00,,,0.06,WeatherCatV1.11B39,2013-09-10 18:56:00,
2013-09-10 15:01:00,74.0,68.1,29.85,West,261,9.0,10.0,82,0.00,,,0.06,WeatherCatV1.11B39,2013-09-10 19:01:00,
2013-09-10 15:06:00,74.1,68.2,29.85,WSW,254,2.0,5.0,82,0.00,,,0.06,WeatherCatV1.11B39,2013-09-10 19:06:00,
2013-09-10 15:11:00,74.1,67.5,29.85,West,266,7.0,8.0,80,0.00,,,0.06,WeatherCatV1.11B39,2013-09-10 19:11:00,
2013-09-10 15:16:00,74.3,68.1,29.85,West,277,4.0,8.0,81,0.00,,,0.06,WeatherCatV1.11B39,2013-09-10 19:16:00,
2013-09-10 15:21:00,74.5,68.3,29.85,West,271,6.0,11.0,81,0.00,,,0.06,WeatherCatV1.11B39,2013-09-10 19:21:00,
2013-09-10 15:26:00,74.6,68.0,29.85,West,275,7.0,7.0,80,0.00,,,0.06,WeatherCatV1.11B39,2013-09-10 19:26:00,
2013-09-10 15:31:00,74.6,68.4,29.85,West,260,3.0,5.0,81,0.00,,,0.06,WeatherCatV1.11B39,2013-09-10 19:31:00,
2013-09-10 15:36:00,74.5,67.9,29.85,West,269,5.0,7.0,80,0.00,,,0.06,WeatherCatV1.11B39,2013-09-10 19:36:00,
2013-09-10 15:41:00,74.4,67.8,29.85,West,263,5.0,6.0,80,0.00,,,0.06,WeatherCatV1.11B39,2013-09-10 19:41:00,
2013-09-10 15:46:00,74.4,68.2,29.85,WSW,251,5.0,5.0,81,0.00,,,0.06,WeatherCatV1.11B39,2013-09-10 19:46:00,
2013-09-10 15:51:00,74.5,67.9,29.85,WNW,293,7.0,12.0,80,0.00,,,0.06,WeatherCatV1.11B39,2013-09-10 19:51:00,
2013-09-10 15:56:00,74.6,68.0,29.85,WSW,257,0.0,0.0,80,0.00,,,0.06,WeatherCatV1.11B39,2013-09-10 19:56:00,
2013-09-10 16:01:00,75.0,68.4,29.84,WNW,282,3.0,7.0,80,0.00,,,0.06,WeatherCatV1.11B39,2013-09-10 20:01:00,
2013-09-10 16:06:00,75.2,68.2,29.85,NW,307,6.0,8.0,79,0.00,,,0.06,WeatherCatV1.11B39,2013-09-10 20:06:00,
2013-09-10 16:11:00,75.4,68.0,29.84,WSW,258,2.0,7.0,78,0.00,,,0.06,WeatherCatV1.11B39,2013-09-10 20:11:00,
2013-09-10 16:16:00,75.3,67.9,29.85,West,271,8.0,8.0,78,0.00,,,0.06,WeatherCatV1.11B39,2013-09-10 20:16:00,
2013-09-10 16:21:00,75.2,67.9,29.84,NNW,327,6.0,9.0,78,0.00,,,0.06,WeatherCatV1.11B39,2013-09-10 20:21:00,
2013-09-10 16:26:00,75.2,67.9,29.85,West,264,2.0,6.0,78,0.00,,,0.06,WeatherCatV1.11B39,2013-09-10 20:26:00,
2013-09-10 16:31:00,75.3,67.9,29.85,West,266,3.0,6.0,78,0.00,,,0.06,WeatherCatV1.11B39,2013-09-10 20:31:00,
2013-09-10 16:36:00,75.3,67.9,29.85,WNW,286,3.0,9.0,78,0.00,,,0.06,WeatherCatV1.11B39,2013-09-10 20:36:00,
2013-09-10 16:41:00,75.7,68.3,29.85,West,264,5.0,5.0,78,0.00,,,0.06,WeatherCatV1.11B39,2013-09-10 20:41:00,
2013-09-10 16:46:00,75.7,68.0,29.84,West,260,5.0,8.0,77,0.00,,,0.06,WeatherCatV1.11B39,2013-09-10 20:46:00,
2013-09-10 16:51:00,75.7,68.0,29.85,West,262,4.0,8.0,77,0.00,,,0.06,WeatherCatV1.11B39,2013-09-10 20:51:00,
2013-09-10 16:56:00,75.5,67.8,29.84,WSW,255,5.0,7.0,77,0.00,,,0.06,WeatherCatV1.11B39,2013-09-10 20:56:00,
2013-09-10 17:01:00,75.5,67.8,29.84,NW,314,3.0,4.0,77,0.00,,,0.06,WeatherCatV1.11B39,2013-09-10 21:01:00,
2013-09-10 17:06:00,75.3,67.9,29.84,WSW,257,7.0,9.0,78,0.00,,,0.06,WeatherCatV1.11B39,2013-09-10 21:06:00,
2013-09-10 17:11:00,75.2,67.5,29.84,WNW,302,3.0,8.0,77,0.00,,,0.06,WeatherCatV1.11B39,2013-09-10 21:11:00,
2013-09-10 17:16:00,75.2,67.9,29.84,NW,319,4.0,5.0,78,0.00,,,0.06,WeatherCatV1.11B39,2013-09-10 21:16:00,
2013-09-10 17:21:00,74.9,67.6,29.84,West,262,0.0,0.0,78,0.00,,,0.06,WeatherCatV1.11B39,2013-09-10 21:21:00,
2013-09-10 17:26:00,74.8,67.8,29.84,West,261,6.0,7.0,79,0.00,,,0.06,WeatherCatV1.11B39,2013-09-10 21:26:00,
2013-09-10 17:31:00,74.6,67.6,29.84,WSW,253,6.0,7.0,79,0.00,,,0.06,WeatherCatV1.11B39,2013-09-10 21:31:00,
2013-09-10 17:36:00,74.5,67.5,29.85,WSW,245,7.0,10.0,79,0.00,,,0.06,WeatherCatV1.11B39,2013-09-10 21:36:00,
2013-09-10 17:41:00,74.1,67.5,29.85,West,260,5.0,7.0,80,0.00,,,0.06,WeatherCatV1.11B39,2013-09-10 21:41:00,
2013-09-10 17:46:00,74.1,67.9,29.85,WSW,253,4.0,7.0,81,0.00,,,0.06,WeatherCatV1.11B39,2013-09-10 21:46:00,
2013-09-10 17:51:00,74.0,67.8,29.85,West,263,5.0,7.0,81,0.00,,,0.06,WeatherCatV1.11B39,2013-09-10 21:51:00,
2013-09-10 17:56:00,73.9,67.7,29.84,WSW,253,2.0,5.0,81,0.00,,,0.06,WeatherCatV1.11B39,2013-09-10 21:56:00,
2013-09-10 18:01:00,73.8,67.9,29.84,WSW,254,4.0,7.0,82,0.00,,,0.06,WeatherCatV1.11B39,2013-09-10 22:01:00,
2013-09-10 18:06:00,73.8,67.9,29.84,West,269,4.0,5.0,82,0.00,,,0.06,WeatherCatV1.11B39,2013-09-10 22:06:00,
2013-09-10 18:11:00,73.8,67.9,29.84,West,270,5.0,5.0,82,0.00,,,0.06,WeatherCatV1.11B39,2013-09-10 22:11:00,
2013-09-10 18:16:00,73.8,67.9,29.84,West,266,0.0,0.0,82,0.00,,,0.06,WeatherCatV1.11B39,2013-09-10 22:16:00,
2013-09-10 18:21:00,73.6,67.8,29.84,WSW,250,0.0,0.0,82,0.00,,,0.06,WeatherCatV1.11B39,2013-09-10 22:21:00,
2013-09-10 18:26:00,73.6,67.8,29.85,SSW,197,3.0,3.0,82,0.00,,,0.06,WeatherCatV1.11B39,2013-09-10 22:26:00,
2013-09-10 18:31:00,73.6,67.8,29.84,SW,235,0.0,0.0,82,0.00,,,0.06,WeatherCatV1.11B39,2013-09-10 22:31:00,
2013-09-10 18:36:00,73.6,68.1,29.85,SW,232,0.0,0.0,83,0.00,,,0.06,WeatherCatV1.11B39,2013-09-10 22:36:00,
2013-09-10 18:41:00,73.6,68.5,29.85,WSW,239,0.0,0.0,84,0.00,,,0.06,WeatherCatV1.11B39,2013-09-10 22:41:00,
2013-09-10 18:46:00,73.4,67.9,29.85,WSW,257,0.0,0.0,83,0.00,,,0.06,WeatherCatV1.11B39,2013-09-10 22:46:00,
2013-09-10 18:51:00,73.5,68.4,29.85,West,263,0.0,0.0,84,0.00,,,0.06,WeatherCatV1.11B39,2013-09-10 22:51:00,
2013-09-10 18:56:00,73.5,68.4,29.85,WSW,252,2.0,5.0,84,0.00,,,0.06,WeatherCatV1.11B39,2013-09-10 22:56:00,
2013-09-10 19:01:00,73.5,68.4,29.85,West,262,2.0,6.0,84,0.00,,,0.06,WeatherCatV1.11B39,2013-09-10 23:01:00,
2013-09-10 19:06:00,73.4,68.3,29.85,WSW,256,0.0,1.0,84,0.00,,,0.06,WeatherCatV1.11B39,2013-09-10 23:06:00,
2013-09-10 19:11:00,73.4,68.6,29.85,West,263,4.0,5.0,85,0.00,,,0.06,WeatherCatV1.11B39,2013-09-10 23:11:00,
2013-09-10 19:16:00,73.4,68.6,29.85,WSW,257,0.0,0.0,85,0.00,,,0.06,WeatherCatV1.11B39,2013-09-10 23:16:00,
2013-09-10 19:21:00,73.3,68.5,29.85,SW,232,0.0,0.0,85,0.00,,,0.06,WeatherCatV1.11B39,2013-09-10 23:21:00,
2013-09-10 19:26:00,73.3,68.5,29.85,SW,232,0.0,0.0,85,0.00,,,0.06,WeatherCatV1.11B39,2013-09-10 23:26:00,
2013-09-10 19:31:00,73.3,68.5,29.86,SW,232,0.0,0.0,85,0.00,,,0.06,WeatherCatV1.11B39,2013-09-10 23:31:00,
2013-09-10 19:36:00,73.3,68.5,29.86,SW,231,0.0,0.0,85,0.00,,,0.06,WeatherCatV1.11B39,2013-09-10 23:36:00,
2013-09-10 19:41:00,73.3,68.5,29.86,SW,231,0.0,0.0,85,0.00,,,0.06,WeatherCatV1.11B39,2013-09-10 23:41:00,
2013-09-10 19:46:00,73.3,68.8,29.86,SW,231,0.0,0.0,86,0.00,,,0.06,WeatherCatV1.11B39,2013-09-10 23:46:00,
2013-09-10 19:51:00,73.1,68.3,29.86,SW,231,0.0,0.0,85,0.00,,,0.06,WeatherCatV1.11B39,2013-09-10 23:51:00,
2013-09-10 19:56:00,73.1,68.7,29.87,SW,231,0.0,0.0,86,0.00,,,0.06,WeatherCatV1.11B39,2013-09-10 23:56:00,
2013-09-10 20:01:00,73.1,68.3,29.86,SW,231,0.0,0.0,85,0.00,,,0.06,WeatherCatV1.11B39,2013-09-11 00:01:00,
2013-09-10 20:06:00,72.9,68.5,29.87,SW,231,0.0,0.0,86,0.00,,,0.06,WeatherCatV1.11B39,2013-09-11 00:06:00,
2013-09-10 20:11:00,72.9,68.1,29.88,SW,231,0.0,0.0,85,0.00,,,0.06,WeatherCatV1.11B39,2013-09-11 00:11:00,
2013-09-10 20:16:00,72.9,68.5,29.87,SW,231,0.0,0.0,86,0.00,,,0.06,WeatherCatV1.11B39,2013-09-11 00:16:00,
2013-09-10 20:21:00,72.8,68.4,29.88,SW,231,0.0,0.0,86,0.00,,,0.06,WeatherCatV1.11B39,2013-09-11 00:21:00,
2013-09-10 20:26:00,72.6,68.5,29.88,SW,231,0.0,0.0,87,0.00,,,0.06,WeatherCatV1.11B39,2013-09-11 00:26:00,
2013-09-10 20:31:00,72.6,68.8,29.88,SW,231,0.0,0.0,88,0.00,,,0.06,WeatherCatV1.11B39,2013-09-11 00:31:00,
2013-09-10 20:36:00,72.4,68.3,29.88,SW,231,0.0,0.0,87,0.00,,,0.06,WeatherCatV1.11B39,2013-09-11 00:36:00,
2013-09-10 20:41:00,72.4,68.6,29.88,SW,231,0.0,0.0,88,0.00,,,0.06,WeatherCatV1.11B39,2013-09-11 00:41:00,
2013-09-10 20:46:00,72.4,68.6,29.88,SW,231,0.0,0.0,88,0.00,,,0.06,WeatherCatV1.11B39,2013-09-11 00:46:00,
2013-09-10 20:51:00,72.2,68.4,29.88,SW,231,0.0,0.0,88,0.00,,,0.06,WeatherCatV1.11B39,2013-09-11 00:51:00,
2013-09-10 20:56:00,72.3,68.5,29.89,SW,231,0.0,0.0,88,0.00,,,0.06,WeatherCatV1.11B39,2013-09-11 00:56:00,
2013-09-10 21:01:00,72.3,68.9,29.88,SW,231,0.0,0.0,89,0.00,,,0.06,WeatherCatV1.11B39,2013-09-11 01:01:00,
2013-09-10 21:06:00,72.1,68.7,29.89,SW,231,0.0,0.0,89,0.00,,,0.06,WeatherCatV1.11B39,2013-09-11 01:06:00,
2013-09-10 21:11:00,72.1,68.7,29.89,SW,231,0.0,0.0,89,0.00,,,0.06,WeatherCatV1.11B39,2013-09-11 01:11:00,
2013-09-10 21:16:00,72.1,68.7,29.88,SW,231,0.0,0.0,89,0.00,,,0.06,WeatherCatV1.11B39,2013-09-11 01:16:00,
2013-09-10 21:21:00,72.1,69.0,29.88,SW,231,0.0,0.0,90,0.00,,,0.06,WeatherCatV1.11B39,2013-09-11 01:21:00,
2013-09-10 21:26:00,72.1,68.7,29.88,SW,231,0.0,0.0,89,0.00,,,0.06,WeatherCatV1.11B39,2013-09-11 01:26:00,
2013-09-10 21:31:00,71.9,68.8,29.88,SW,231,0.0,0.0,90,0.00,,,0.06,WeatherCatV1.11B39,2013-09-11 01:31:00,
2013-09-10 21:36:00,71.9,68.8,29.88,SW,221,0.0,0.0,90,0.00,,,0.06,WeatherCatV1.11B39,2013-09-11 01:36:00,
2013-09-10 21:41:00,72.1,69.0,29.89,SW,220,0.0,0.0,90,0.00,,,0.06,WeatherCatV1.11B39,2013-09-11 01:41:00,
2013-09-10 21:46:00,72.1,69.0,29.89,SW,220,0.0,0.0,90,0.00,,,0.06,WeatherCatV1.11B39,2013-09-11 01:46:00,
2013-09-10 21:51:00,72.1,69.0,29.89,SW,220,0.0,0.0,90,0.00,,,0.06,WeatherCatV1.11B39,2013-09-11 01:51:00,
2013-09-10 21:56:00,72.1,69.0,29.89,SW,220,0.0,0.0,90,0.00,,,0.06,WeatherCatV1.11B39,2013-09-11 01:56:00,
2013-09-10 22:01:00,71.9,68.8,29.89,SW,220,0.0,0.0,90,0.00,,,0.06,WeatherCatV1.11B39,2013-09-11 02:01:00,
2013-09-10 22:06:00,71.9,68.8,29.89,SW,220,0.0,0.0,90,0.00,,,0.06,WeatherCatV1.11B39,2013-09-11 02:06:00,
2013-09-10 22:11:00,71.9,68.8,29.89,SW,220,0.0,0.0,90,0.00,,,0.06,WeatherCatV1.11B39,2013-09-11 02:11:00,
2013-09-10 22:16:00,71.9,68.8,29.89,SW,220,0.0,0.0,90,0.00,,,0.06,WeatherCatV1.11B39,2013-09-11 02:16:00,
2013-09-10 22:21:00,71.9,69.1,29.89,SW,220,0.0,0.0,91,0.00,,,0.06,WeatherCatV1.11B39,2013-09-11 02:21:00,
2013-09-10 22:26:00,71.9,68.8,29.88,SW,220,0.0,0.0,90,0.00,,,0.06,WeatherCatV1.11B39,2013-09-11 02:26:00,
2013-09-10 22:31:00,71.9,68.8,29.89,SW,220,0.0,0.0,90,0.00,,,0.06,WeatherCatV1.11B39,2013-09-11 02:31:00,
2013-09-10 22:36:00,71.7,68.9,29.89,SW,220,0.0,0.0,91,0.00,,,0.06,WeatherCatV1.11B39,2013-09-11 02:36:00,
2013-09-10 22:41:00,71.7,68.9,29.88,SW,220,0.0,0.0,91,0.00,,,0.06,WeatherCatV1.11B39,2013-09-11 02:41:00,
2013-09-10 22:46:00,71.6,68.8,29.89,SW,220,0.0,0.0,91,0.00,,,0.06,WeatherCatV1.11B39,2013-09-11 02:46:00,
2013-09-10 22:51:00,71.6,68.8,29.89,SW,220,0.0,0.0,91,0.00,,,0.06,WeatherCatV1.11B39,2013-09-11 02:51:00,
2013-09-10 22:56:00,71.4,68.6,29.89,SW,220,0.0,0.0,91,0.00,,,0.06,WeatherCatV1.11B39,2013-09-11 02:56:00,
2013-09-10 23:01:00,71.2,68.8,29.88,SW,219,0.0,0.0,92,0.00,,,0.06,WeatherCatV1.11B39,2013-09-11 03:01:00,
2013-09-10 23:06:00,71.2,68.8,29.88,SW,220,0.0,0.0,92,0.00,,,0.06,WeatherCatV1.11B39,2013-09-11 03:06:00,
2013-09-10 23:11:00,71.1,68.7,29.88,SW,219,0.0,0.0,92,0.00,,,0.06,WeatherCatV1.11B39,2013-09-11 03:11:00,
2013-09-10 23:16:00,71.0,68.6,29.88,SW,219,0.0,0.0,92,0.00,,,0.06,WeatherCatV1.11B39,2013-09-11 03:16:00,
2013-09-10 23:21:00,70.9,68.5,29.88,SSW,210,0.0,0.0,92,0.00,,,0.06,WeatherCatV1.11B39,2013-09-11 03:21:00,
2013-09-10 23:26:00,70.9,68.5,29.88,SSW,210,0.0,0.0,92,0.00,,,0.06,WeatherCatV1.11B39,2013-09-11 03:26:00,
2013-09-10 23:31:00,70.7,68.6,29.87,SSW,210,0.0,0.0,93,0.00,,,0.06,WeatherCatV1.11B39,2013-09-11 03:31:00,
2013-09-10 23:36:00,70.7,68.6,29.88,SSW,209,0.0,0.0,93,0.00,,,0.06,WeatherCatV1.11B39,2013-09-11 03:36:00,
2013-09-10 23:41:00,70.7,68.9,29.87,SSW,209,0.0,0.0,94,0.00,,,0.06,WeatherCatV1.11B39,2013-09-11 03:41:00,
2013-09-10 23:46:00,70.6,68.8,29.87,SSE,155,0.0,0.0,94,0.00,,,0.06,WeatherCatV1.11B39,2013-09-11 03:46:00,
2013-09-10 23:51:00,70.5,68.7,29.87,SSE,152,0.0,0.0,94,0.00,,,0.06,WeatherCatV1.11B39,2013-09-11 03:51:00,
2013-09-10 23:56:00,70.5,68.7,29.88,SSE,165,0.0,0.0,94,0.00,,,0.06,WeatherCatV1.11B39,2013-09-11 03:56:00,